Time;durP1;ratioP1;P1;durP2;ratioP2;P2;SDS_P1;SDS_P2;PMS_P1;PMS_P2;Temp;Humidity;BMP_temperature;BMP_pressure;BME280_temperature;BME280_humidity;BME280_pressure;Samples;Min_cycle;Max_cycle;Signal;HPM_P1;HPM_P2
2022/02/02 00:02:10;;;;;;;2.70;1.42;;;;;;;;;;5011821;28;20191;-74
2022/02/02 00:04:42;;;;;;;2.88;1.38;;;;;;;;;;5009261;28;20064;-74
2022/02/02 00:07:27;;;;;;;1.60;1.23;;;;;;;;;;5011331;28;20345;-74
2022/02/02 00:10:05;;;;;;;3.95;1.48;;;;;;;;;;5010533;28;20163;-74
2022/02/02 00:12:46;;;;;;;3.33;1.70;;;;;;;;;;5005944;28;20025;-72
2022/02/02 00:17:49;;;;;;;2.83;1.40;;;;;;;;;;5010964;28;20101;-73
2022/02/02 00:20:26;;;;;;;4.97;1.50;;;;;;;;;;5010545;28;20079;-74
2022/02/02 00:22:54;;;;;;;2.17;1.40;;;;;;;;;;5009633;28;20080;-74
2022/02/02 00:25:29;;;;;;;1.90;1.40;;;;;;;;;;5011229;28;20672;-74
2022/02/02 00:27:58;;;;;;;3.28;1.40;;;;;;;;;;5009128;28;20450;-74
2022/02/02 00:30:26;;;;;;;3.42;1.50;;;;;;;;;;5009664;28;20457;-73
2022/02/02 00:35:21;;;;;;;3.78;1.60;;;;;;;;;;5011662;28;20120;-73
2022/02/02 00:37:46;;;;;;;2.17;1.38;;;;;;;;;;5010076;28;20017;-75
2022/02/02 00:40:12;;;;;;;3.10;1.80;;;;;;;;;;5013785;28;20038;-73
2022/02/02 00:42:37;;;;;;;3.58;1.50;;;;;;;;;;5010680;28;20032;-75
2022/02/02 00:45:02;;;;;;;3.13;1.63;;;;;;;;;;5011469;28;20026;-74
2022/02/02 00:47:35;;;;;;;3.28;1.60;;;;;;;;;;5011029;28;20041;-73
2022/02/02 00:50:00;;;;;;;3.70;1.75;;;;;;;;;;5010870;28;20418;-73
2022/02/02 00:52:26;;;;;;;5.68;1.85;;;;;;;;;;5007315;28;20077;-74
2022/02/02 00:54:51;;;;;;;3.63;1.90;;;;;;;;;;5005860;28;20500;-74
2022/02/02 00:57:16;;;;;;;5.18;2.42;;;;;;;;;;5011282;28;20085;-74
2022/02/02 00:59:42;;;;;;;3.70;2.42;;;;;;;;;;5010537;28;20473;-74
2022/02/02 01:02:08;;;;;;;5.20;2.47;;;;;;;;;;5007180;28;20092;-73
2022/02/02 01:04:33;;;;;;;4.32;2.10;;;;;;;;;;5010244;28;20144;-73
2022/02/02 01:07:10;;;;;;;4.70;2.58;;;;;;;;;;5010698;28;20473;-73
2022/02/02 01:09:48;;;;;;;5.10;2.30;;;;;;;;;;5009913;28;20235;-74
2022/02/02 01:28:22;;;;;;;4.22;1.95;;;;;;;;;;5002844;28;20075;-73
2022/02/02 01:30:48;;;;;;;2.85;1.75;;;;;;;;;;5015402;28;20407;-74
2022/02/02 01:33:13;;;;;;;4.63;2.05;;;;;;;;;;5008918;28;20026;-74
2022/02/02 01:35:38;;;;;;;2.33;1.50;;;;;;;;;;5008808;28;20034;-74
2022/02/02 01:38:04;;;;;;;2.83;1.55;;;;;;;;;;5008152;28;20446;-74
2022/02/02 01:40:34;;;;;;;3.20;1.40;;;;;;;;;;5008835;28;20028;-73
2022/02/02 01:43:11;;;;;;;1.50;1.10;;;;;;;;;;5005195;28;20458;-73
2022/02/02 01:45:45;;;;;;;1.75;0.90;;;;;;;;;;5005772;28;20095;-74
2022/02/02 01:48:27;;;;;;;2.15;1.45;;;;;;;;;;5008774;28;20033;-74
2022/02/02 01:55:59;;;;;;;1.63;0.85;;;;;;;;;;5008933;28;20109;-73
2022/02/02 02:01:03;;;;;;;1.13;0.80;;;;;;;;;;5008342;28;20022;-73
2022/02/02 02:03:28;;;;;;;1.48;0.77;;;;;;;;;;5008263;28;20052;-73
2022/02/02 02:05:53;;;;;;;1.40;1.00;;;;;;;;;;5006643;28;20017;-74
2022/02/02 02:08:18;;;;;;;2.42;1.10;;;;;;;;;;5003801;28;20033;-74
2022/02/02 02:10:43;;;;;;;1.45;0.98;;;;;;;;;;5007705;28;20025;-73
2022/02/02 02:15:57;;;;;;;2.22;0.93;;;;;;;;;;4990709;28;20045;-73
2022/02/02 02:18:22;;;;;;;1.80;1.00;;;;;;;;;;4985977;28;20030;-73
2022/02/02 02:20:47;;;;;;;1.52;0.90;;;;;;;;;;4988128;28;20030;-75
2022/02/02 02:23:13;;;;;;;1.58;0.98;;;;;;;;;;4984862;28;20066;-74
2022/02/02 02:25:39;;;;;;;1.17;0.93;;;;;;;;;;4985862;28;20057;-73
2022/02/02 02:30:50;;;;;;;2.55;1.00;;;;;;;;;;4986219;28;20109;-75
2022/02/02 02:57:29;;;;;;;2.63;1.42;;;;;;;;;;5004317;28;20465;-74
2022/02/02 03:03:11;;;;;;;4.57;1.98;;;;;;;;;;5007875;28;20557;-74
2022/02/02 03:30:27;;;;;;;4.82;1.65;;;;;;;;;;4975376;28;20097;-74
2022/02/02 03:57:36;;;;;;;7.25;2.13;;;;;;;;;;4984672;28;20100;-74
2022/02/02 04:03:24;;;;;;;7.07;2.28;;;;;;;;;;4980652;28;20159;-75
2022/02/02 04:05:43;;;;;;;6.15;1.58;;;;;;;;;;4985888;28;20121;-75
2022/02/02 04:10:46;;;;;;;5.35;1.58;;;;;;;;;;4984906;28;20058;-74
2022/02/02 04:38:06;;;;;;;6.20;1.60;;;;;;;;;;5010073;28;20029;-74
2022/02/02 04:51:38;;;;;;;2.53;1.02;;;;;;;;;;5006811;28;20049;-73
2022/02/02 05:18:17;;;;;;;2.90;1.20;;;;;;;;;;4988093;28;20029;-74
2022/02/02 05:21:27;;;;;;;7.15;1.50;;;;;;;;;;4988419;28;20038;-74
2022/02/02 05:51:07;;;;;;;3.83;1.08;;;;;;;;;;5004219;28;20140;-74
2022/02/02 05:53:33;;;;;;;3.15;1.10;;;;;;;;;;5006345;28;20042;-75
2022/02/02 05:56:01;;;;;;;4.43;1.30;;;;;;;;;;5009396;28;20018;-75
2022/02/02 05:58:30;;;;;;;5.30;1.65;;;;;;;;;;5009467;28;20036;-74
2022/02/02 06:00:56;;;;;;;3.85;1.77;;;;;;;;;;5009109;28;20032;-74
2022/02/02 06:03:24;;;;;;;4.32;1.60;;;;;;;;;;5006618;28;20420;-75
2022/02/02 06:05:50;;;;;;;5.75;2.10;;;;;;;;;;5004481;28;20103;-76
2022/02/02 06:08:16;;;;;;;3.63;2.00;;;;;;;;;;5005628;28;20173;-77
2022/02/02 06:10:42;;;;;;;6.32;2.60;;;;;;;;;;5008733;28;20010;-75
2022/02/02 06:13:08;;;;;;;5.53;2.40;;;;;;;;;;5005348;28;20033;-76
2022/02/02 06:15:36;;;;;;;5.57;2.47;;;;;;;;;;5003762;28;20021;-76
2022/02/02 06:18:03;;;;;;;8.95;3.13;;;;;;;;;;5016374;28;20028;-77
2022/02/02 06:20:29;;;;;;;9.52;3.67;;;;;;;;;;5010571;28;20033;-75
2022/02/02 06:23:00;;;;;;;6.63;2.83;;;;;;;;;;5008078;28;20030;-76
2022/02/02 06:25:28;;;;;;;8.88;3.60;;;;;;;;;;5004247;28;20033;-75
2022/02/02 06:28:09;;;;;;;6.70;3.15;;;;;;;;;;5008751;28;20038;-74
2022/02/02 06:30:34;;;;;;;11.75;3.42;;;;;;;;;;5008265;28;20028;-75
2022/02/02 06:33:06;;;;;;;12.80;3.50;;;;;;;;;;5008388;28;20041;-76
2022/02/02 06:35:32;;;;;;;8.63;3.53;;;;;;;;;;5005011;28;20091;-75
2022/02/02 06:37:57;;;;;;;10.95;3.85;;;;;;;;;;5011340;28;20033;-75
2022/02/02 06:40:23;;;;;;;10.30;3.70;;;;;;;;;;5009397;28;20030;-74
2022/02/02 06:42:50;;;;;;;11.18;3.53;;;;;;;;;;5002236;28;20114;-75
2022/02/02 06:45:15;;;;;;;13.23;3.67;;;;;;;;;;5003495;28;20045;-75
2022/02/02 06:47:41;;;;;;;14.18;3.95;;;;;;;;;;5007963;28;20026;-76
2022/02/02 06:50:18;;;;;;;12.02;4.35;;;;;;;;;;5008405;28;20484;-75
2022/02/02 06:53:02;;;;;;;13.23;3.67;;;;;;;;;;5006366;28;20026;-76
2022/02/02 06:55:37;;;;;;;11.63;3.42;;;;;;;;;;5008603;28;20041;-75
2022/02/02 06:58:18;;;;;;;13.82;3.95;;;;;;;;;;5008408;28;20028;-75
2022/02/02 07:03:27;;;;;;;10.10;3.53;;;;;;;;;;5004706;28;20424;-75
2022/02/02 07:06:26;;;;;;;12.82;3.70;;;;;;;;;;5008693;28;20057;-75
2022/02/02 07:08:57;;;;;;;16.60;3.53;;;;;;;;;;5006810;28;20142;-75
2022/02/02 07:11:36;;;;;;;13.77;2.85;;;;;;;;;;5006748;28;20125;-75
2022/02/02 07:14:11;;;;;;;15.55;3.75;;;;;;;;;;5008237;28;20065;-76
2022/02/02 07:16:47;;;;;;;13.43;2.90;;;;;;;;;;5008052;28;20041;-74
2022/02/02 07:19:35;;;;;;;18.17;3.30;;;;;;;;;;5007872;28;20057;-75
2022/02/02 07:24:57;;;;;;;10.48;2.65;;;;;;;;;;5007734;28;20049;-75
2022/02/02 07:27:37;;;;;;;15.40;2.80;;;;;;;;;;5011620;28;20034;-74
2022/02/02 07:32:48;;;;;;;10.82;2.50;;;;;;;;;;5008058;28;20034;-73
2022/02/02 07:37:47;;;;;;;13.63;2.30;;;;;;;;;;5007620;28;20634;-74
2022/02/02 07:40:13;;;;;;;8.90;2.28;;;;;;;;;;5008705;28;20026;-75
2022/02/02 07:42:46;;;;;;;9.68;2.10;;;;;;;;;;5006926;28;20036;-74
2022/02/02 07:45:12;;;;;;;12.15;2.17;;;;;;;;;;5008395;28;20029;-73
2022/02/02 07:47:41;;;;;;;5.95;2.03;;;;;;;;;;5006653;28;20153;-74
2022/02/02 07:50:09;;;;;;;8.57;2.28;;;;;;;;;;5012091;28;20029;-75
2022/02/02 07:52:34;;;;;;;7.45;1.83;;;;;;;;;;5004142;28;20028;-76
2022/02/02 07:55:02;;;;;;;8.00;2.22;;;;;;;;;;5008765;28;20029;-73
2022/02/02 07:57:28;;;;;;;7.53;2.95;;;;;;;;;;5007966;28;20024;-74
2022/02/02 07:59:57;;;;;;;9.20;2.30;;;;;;;;;;5008187;28;20096;-74
2022/02/02 08:02:33;;;;;;;10.23;2.35;;;;;;;;;;5007815;28;20045;-75
2022/02/02 08:05:00;;;;;;;6.93;2.65;;;;;;;;;;5008195;28;20093;-74
2022/02/02 08:07:30;;;;;;;13.05;2.80;;;;;;;;;;5007507;28;20058;-75
2022/02/02 08:10:12;;;;;;;12.02;3.28;;;;;;;;;;5008445;28;20119;-74
2022/02/02 08:12:54;;;;;;;15.88;3.10;;;;;;;;;;5011163;28;20022;-74
2022/02/02 08:15:21;;;;;;;10.98;2.85;;;;;;;;;;5010706;28;20030;-75
2022/02/02 08:17:48;;;;;;;11.07;3.03;;;;;;;;;;5013656;28;20068;-75
2022/02/02 08:20:14;;;;;;;14.98;2.92;;;;;;;;;;5014392;28;20032;-75
2022/02/02 08:22:40;;;;;;;16.52;3.25;;;;;;;;;;5010750;28;20125;-74
2022/02/02 08:25:10;;;;;;;11.75;2.80;;;;;;;;;;5011745;28;20034;-74
2022/02/02 08:27:41;;;;;;;15.88;4.43;;;;;;;;;;5005072;28;20093;-74
2022/02/02 08:30:10;;;;;;;18.17;3.47;;;;;;;;;;5010319;28;20557;-75
2022/02/02 08:32:56;;;;;;;17.83;3.40;;;;;;;;;;5011668;28;20029;-74
2022/02/02 08:35:22;;;;;;;15.35;3.72;;;;;;;;;;5007690;28;20026;-75
2022/02/02 08:42:54;;;;;;;12.48;3.33;;;;;;;;;;5009028;28;20014;-75
2022/02/02 08:45:29;;;;;;;14.35;3.33;;;;;;;;;;5011306;28;20034;-75
2022/02/02 08:47:59;;;;;;;13.50;2.33;;;;;;;;;;5011500;28;20161;-75
2022/02/02 08:50:51;;;;;;;12.48;2.33;;;;;;;;;;5011600;28;20049;-74
2022/02/02 08:53:28;;;;;;;9.18;2.38;;;;;;;;;;5010823;28;20054;-75
2022/02/02 08:58:44;;;;;;;13.80;2.50;;;;;;;;;;5010883;28;20076;-75
2022/02/02 09:01:22;;;;;;;;;;;;;;;;;;5011216;28;20025;-77
2022/02/02 09:06:31;;;;;;;13.35;2.70;;;;;;;;;;5009373;28;20100;-75
2022/02/02 09:20:37;;;;;;;14.70;2.97;;;;;;;;;;4909393;29;20043;-77
2022/02/02 09:25:58;;;;;;;12.55;2.95;;;;;;;;;;4895228;29;20136;-75
2022/02/02 09:36:32;;;;;;;13.35;2.70;;;;;;;;;;4880193;29;20127;-77
2022/02/02 09:38:59;;;;;;;17.17;3.17;;;;;;;;;;4880860;29;20025;-76
2022/02/02 09:43:59;;;;;;;10.52;2.53;;;;;;;;;;4874044;29;20123;-77
2022/02/02 09:46:31;;;;;;;13.48;3.20;;;;;;;;;;4880310;29;20089;-76
2022/02/02 09:49:00;;;;;;;16.95;3.05;;;;;;;;;;4888868;29;20031;-75
2022/02/02 09:51:40;;;;;;;13.27;2.78;;;;;;;;;;4888353;29;20430;-80
2022/02/02 09:54:09;;;;;;;14.50;3.05;;;;;;;;;;4930125;28;20133;-81
2022/02/02 10:07:24;;;;;;;15.68;2.88;;;;;;;;;;5000172;28;20054;-80
2022/02/02 10:15:26;;;;;;;16.63;3.58;;;;;;;;;;4971390;28;20030;-80
2022/02/02 10:18:08;;;;;;;13.30;2.97;;;;;;;;;;4974686;28;20107;-79
2022/02/02 10:20:36;;;;;;;12.45;2.88;;;;;;;;;;4971769;28;20041;-79
2022/02/02 10:23:02;;;;;;;13.57;3.05;;;;;;;;;;4978415;28;20433;-80
2022/02/02 10:25:29;;;;;;;13.48;2.65;;;;;;;;;;4967560;28;20031;-80
2022/02/02 10:28:16;;;;;;;17.48;3.50;;;;;;;;;;4969087;28;20034;-80
2022/02/02 10:30:48;;;;;;;13.45;2.78;;;;;;;;;;4969594;28;20082;-79
2022/02/02 10:33:14;;;;;;;13.43;2.90;;;;;;;;;;4967832;28;20506;-80
2022/02/02 10:35:41;;;;;;;15.30;3.70;;;;;;;;;;4980973;28;20076;-79
2022/02/02 10:38:11;;;;;;;17.02;3.58;;;;;;;;;;4978529;28;20069;-80
2022/02/02 10:40:52;;;;;;;16.45;3.65;;;;;;;;;;4968652;28;20022;-81
2022/02/02 10:43:33;;;;;;;19.95;4.18;;;;;;;;;;4968233;28;20105;-81
2022/02/02 10:46:16;;;;;;;14.35;3.33;;;;;;;;;;4980753;28;20034;-79
2022/02/02 10:48:50;;;;;;;13.30;3.80;;;;;;;;;;4967713;28;20623;-80
2022/02/02 10:51:24;;;;;;;16.15;3.15;;;;;;;;;;5009813;28;20045;-79
2022/02/02 10:57:07;;;;;;;15.10;3.47;;;;;;;;;;5004588;28;20037;-81
2022/02/02 11:07:16;;;;;;;17.48;3.20;;;;;;;;;;4988238;28;20026;-82
2022/02/02 11:09:44;;;;;;;14.15;3.20;;;;;;;;;;4987315;28;20535;-84
2022/02/02 11:12:09;;;;;;;20.08;3.92;;;;;;;;;;4969021;28;20046;-82
2022/02/02 11:14:55;;;;;;;16.73;3.58;;;;;;;;;;4985059;28;21864;-85
2022/02/02 11:17:26;;;;;;;17.70;3.45;;;;;;;;;;4984089;28;20094;-82
2022/02/02 11:19:54;;;;;;;17.38;3.97;;;;;;;;;;4987349;28;20073;-80
2022/02/02 11:22:30;;;;;;;16.75;4.32;;;;;;;;;;4986374;28;20105;-81
2022/02/02 11:24:59;;;;;;;16.10;3.65;;;;;;;;;;4987171;28;20050;-82
2022/02/02 11:27:47;;;;;;;14.85;3.38;;;;;;;;;;4988290;28;20089;-84
2022/02/02 11:30:27;;;;;;;13.18;3.17;;;;;;;;;;4988582;28;20326;-82
2022/02/02 11:32:52;;;;;;;16.30;3.30;;;;;;;;;;4973342;28;20026;-82
2022/02/02 11:38:06;;;;;;;16.77;3.10;;;;;;;;;;4984485;28;20023;-81
2022/02/02 11:40:36;;;;;;;15.63;3.45;;;;;;;;;;4989362;28;20046;-82
2022/02/02 11:43:11;;;;;;;18.45;3.80;;;;;;;;;;4991794;28;20026;-82
2022/02/02 11:45:52;;;;;;;18.90;3.95;;;;;;;;;;5016083;28;20064;-83
2022/02/02 11:48:36;;;;;;;17.25;4.03;;;;;;;;;;5017197;28;20056;-83
2022/02/02 11:51:02;;;;;;;19.90;3.08;;;;;;;;;;5019639;28;20042;-83
2022/02/02 11:53:46;;;;;;;14.38;4.05;;;;;;;;;;5022293;28;20452;-82
2022/02/02 11:56:11;;;;;;;13.68;3.75;;;;;;;;;;5003092;28;20358;-83
2022/02/02 11:58:37;;;;;;;15.82;3.15;;;;;;;;;;5015109;28;20072;-83
2022/02/02 12:01:05;;;;;;;17.92;3.20;;;;;;;;;;5017181;28;20050;-82
2022/02/02 12:03:48;;;;;;;14.73;3.10;;;;;;;;;;5015759;28;20026;-80
2022/02/02 12:09:09;;;;;;;14.73;2.97;;;;;;;;;;5017599;28;20026;-83
2022/02/02 12:35:57;;;;;;;12.50;2.97;;;;;;;;;;5017149;28;20068;-82
2022/02/02 12:47:20;;;;;;;12.05;2.65;;;;;;;;;;4955291;29;20035;-84
2022/02/02 12:57:18;;;;;;;11.90;2.40;;;;;;;;;;4953554;28;20027;-82
2022/02/02 13:02:21;;;;;;;10.55;2.67;;;;;;;;;;4949342;29;20030;-80
2022/02/02 13:04:50;;;;;;;16.38;4.22;;;;;;;;;;4953406;29;20086;-82
2022/02/02 13:07:17;;;;;;;16.42;3.28;;;;;;;;;;4942313;29;20046;-84
2022/02/02 13:09:43;;;;;;;19.15;3.15;;;;;;;;;;4943038;29;20043;-83
2022/02/02 13:12:17;;;;;;;8.27;2.28;;;;;;;;;;4953502;29;20038;-80
2022/02/02 13:15:03;;;;;;;10.68;2.88;;;;;;;;;;5006806;28;20006;-83
2022/02/02 13:17:28;;;;;;;10.70;3.50;;;;;;;;;;5010704;28;20026;-83
2022/02/02 13:20:01;;;;;;;17.05;3.92;;;;;;;;;;5014026;28;20061;-82
2022/02/02 13:22:29;;;;;;;14.40;2.88;;;;;;;;;;5013918;28;20064;-84
2022/02/02 13:24:55;;;;;;;16.38;3.08;;;;;;;;;;5014336;28;20022;-83
2022/02/02 13:27:21;;;;;;;14.73;3.33;;;;;;;;;;5016276;28;20032;-83
2022/02/02 13:29:51;;;;;;;16.13;3.75;;;;;;;;;;5014167;28;20129;-83
2022/02/02 13:35:07;;;;;;;12.82;3.47;;;;;;;;;;5014496;28;20030;-82
2022/02/02 13:48:54;;;;;;;14.77;3.33;;;;;;;;;;4928743;29;20816;-82
2022/02/02 13:51:49;;;;;;;17.77;3.50;;;;;;;;;;4934198;29;20040;-82
2022/02/02 13:54:33;;;;;;;16.45;3.65;;;;;;;;;;4930337;29;20058;-83
2022/02/02 13:57:11;;;;;;;20.25;3.20;;;;;;;;;;4934053;29;20074;-83
2022/02/02 14:00:21;;;;;;;13.07;3.55;;;;;;;;;;4934309;29;20467;-82
2022/02/02 14:32:24;;;;;;;10.05;2.13;;;;;;;;;;4836460;29;20068;-77
2022/02/02 14:34:49;;;;;;;6.40;2.20;;;;;;;;;;4836710;29;20077;-80
2022/02/02 14:37:18;;;;;;;11.63;2.60;;;;;;;;;;4837986;29;20041;-79
2022/02/02 14:39:57;;;;;;;7.05;2.53;;;;;;;;;;4839330;29;20038;-80
2022/02/02 14:42:27;;;;;;;15.60;2.80;;;;;;;;;;4857356;29;20025;-78
2022/02/02 14:45:00;;;;;;;8.68;2.28;;;;;;;;;;4877232;29;20068;-79
2022/02/02 14:47:34;;;;;;;6.97;2.33;;;;;;;;;;4941519;28;20047;-79
2022/02/02 14:50:11;;;;;;;10.63;2.45;;;;;;;;;;4973769;28;20597;-80
2022/02/02 14:52:52;;;;;;;9.10;2.60;;;;;;;;;;4957714;28;20196;-78
2022/02/02 15:27:37;;;;;;;8.73;2.38;;;;;;;;;;4912291;29;20096;-84
2022/02/02 15:30:26;;;;;;;9.90;2.35;;;;;;;;;;4908450;29;20036;-82
2022/02/02 15:32:54;;;;;;;9.75;2.65;;;;;;;;;;4909845;29;20038;-82
2022/02/02 15:35:21;;;;;;;12.00;2.88;;;;;;;;;;4923446;28;20036;-80
2022/02/02 15:38:16;;;;;;;15.85;3.30;;;;;;;;;;5022364;28;20018;-84
2022/02/02 15:40:47;;;;;;;13.57;2.50;;;;;;;;;;5011770;28;20073;-84
2022/02/02 15:57:39;;;;;;;9.02;2.40;;;;;;;;;;5011109;28;20076;-83
2022/02/02 16:04:25;;;;;;;12.60;2.47;;;;;;;;;;5010563;28;20029;-83
2022/02/02 16:06:51;;;;;;;10.43;2.40;;;;;;;;;;5010459;28;20033;-81
2022/02/02 16:09:25;;;;;;;10.75;2.35;;;;;;;;;;5010035;28;20014;-84
2022/02/02 16:12:06;;;;;;;7.93;2.38;;;;;;;;;;5007458;28;20018;-83
2022/02/02 16:14:34;;;;;;;9.85;2.13;;;;;;;;;;5027375;28;20036;-81
2022/02/02 16:19:42;;;;;;;11.35;2.50;;;;;;;;;;5013150;28;20049;-83
2022/02/02 16:25:10;;;;;;;8.90;2.00;;;;;;;;;;5010511;28;20104;-83
2022/02/02 16:35:45;;;;;;;14.82;2.92;;;;;;;;;;5012919;28;20100;-82
2022/02/02 16:38:12;;;;;;;12.20;3.03;;;;;;;;;;5010900;28;20045;-82
2022/02/02 16:40:41;;;;;;;14.25;3.00;;;;;;;;;;5013771;28;20126;-81
2022/02/02 16:45:33;;;;;;;12.60;2.80;;;;;;;;;;5012999;28;20030;-84
2022/02/02 16:47:58;;;;;;;12.32;2.75;;;;;;;;;;5012247;28;20030;-83
2022/02/02 16:50:29;;;;;;;11.23;2.80;;;;;;;;;;5015747;28;20029;-84
2022/02/02 16:52:58;;;;;;;12.70;2.60;;;;;;;;;;5009102;28;20053;-82
2022/02/02 17:30:40;;;;;;;11.73;2.95;;;;;;;;;;4987765;28;20038;-81
2022/02/02 17:33:14;;;;;;;17.48;2.78;;;;;;;;;;4964549;28;20097;-78
2022/02/02 18:00:32;;;;;;;11.77;3.00;;;;;;;;;;4909981;29;20032;-79
2022/02/02 18:17:28;;;;;;;9.98;3.42;;;;;;;;;;4997523;28;20234;-80
2022/02/02 18:19:13;;;;;;;14.18;4.18;;;;;;;;;;5012432;28;20619;-82
2022/02/02 18:21:39;;;;;;;17.65;3.58;;;;;;;;;;5008610;28;20544;-81
2022/02/02 18:24:14;;;;;;;14.50;4.05;;;;;;;;;;5009807;28;20029;-80
2022/02/02 18:26:43;;;;;;;12.63;3.50;;;;;;;;;;5009274;28;20033;-79
2022/02/02 18:58:43;;;;;;;17.92;4.13;;;;;;;;;;5004683;28;20065;-77
2022/02/02 19:06:52;;;;;;;13.65;3.90;;;;;;;;;;5007678;28;20127;-81
2022/02/02 19:55:41;;;;;;;17.42;6.28;;;;;;;;;;5009115;28;20084;-77
2022/02/02 20:11:30;;;;;;;17.50;6.10;;;;;;;;;;5013360;28;20026;-76
2022/02/02 20:13:55;;;;;;;15.35;5.85;;;;;;;;;;5013542;28;20083;-76
2022/02/02 20:16:20;;;;;;;15.68;5.80;;;;;;;;;;5014896;28;20481;-76
2022/02/02 20:18:48;;;;;;;22.08;6.55;;;;;;;;;;5015960;28;20120;-77
2022/02/02 20:21:16;;;;;;;12.68;6.00;;;;;;;;;;5012332;28;20102;-78
2022/02/02 20:23:45;;;;;;;13.75;5.63;;;;;;;;;;5012352;28;20388;-75
2022/02/02 20:26:14;;;;;;;12.80;5.30;;;;;;;;;;5012170;28;20033;-76
2022/02/02 20:28:39;;;;;;;14.43;5.17;;;;;;;;;;5011948;28;20053;-76
2022/02/02 20:31:05;;;;;;;18.00;5.93;;;;;;;;;;5012301;28;20875;-77
2022/02/02 20:33:30;;;;;;;14.32;6.22;;;;;;;;;;5011942;28;20038;-76
2022/02/02 20:35:55;;;;;;;10.73;5.03;;;;;;;;;;5011642;28;20473;-77
2022/02/02 20:38:20;;;;;;;18.85;5.72;;;;;;;;;;5011677;28;20025;-77
2022/02/02 20:40:46;;;;;;;16.92;5.10;;;;;;;;;;5011457;28;20030;-75
2022/02/02 20:43:24;;;;;;;15.23;5.75;;;;;;;;;;5011867;28;20010;-77
2022/02/02 21:04:51;;;;;;;13.15;4.57;;;;;;;;;;5012315;28;20033;-78
2022/02/02 21:07:27;;;;;;;15.50;5.40;;;;;;;;;;5013756;28;20030;-76
2022/02/02 21:10:02;;;;;;;13.02;4.45;;;;;;;;;;5011073;28;20081;-83
2022/02/02 21:15:25;;;;;;;12.23;4.75;;;;;;;;;;4988790;28;20041;-76
2022/02/02 21:17:52;;;;;;;10.43;5.05;;;;;;;;;;4986984;28;20030;-76
2022/02/02 21:23:05;;;;;;;14.85;5.15;;;;;;;;;;4986542;28;20029;-77
2022/02/02 21:27:58;;;;;;;11.75;5.65;;;;;;;;;;4985053;28;20034;-77
2022/02/02 21:30:24;;;;;;;14.77;6.10;;;;;;;;;;4986465;28;20416;-78
2022/02/02 21:32:50;;;;;;;12.50;5.95;;;;;;;;;;4988126;28;20030;-81
2022/02/02 21:35:17;;;;;;;11.50;5.35;;;;;;;;;;4987603;28;20030;-84
2022/02/02 21:37:44;;;;;;;12.80;6.18;;;;;;;;;;4988620;28;20105;-79
2022/02/02 21:40:23;;;;;;;14.68;6.32;;;;;;;;;;4987403;28;20504;-76
2022/02/02 21:42:49;;;;;;;10.93;6.00;;;;;;;;;;4987911;28;20022;-76
2022/02/02 21:45:15;;;;;;;19.17;5.60;;;;;;;;;;4988380;28;20133;-79
2022/02/02 21:47:40;;;;;;;11.43;5.68;;;;;;;;;;4988079;28;20026;-78
2022/02/02 21:50:12;;;;;;;16.05;6.28;;;;;;;;;;4987181;28;20026;-77
2022/02/02 21:52:37;;;;;;;13.85;6.25;;;;;;;;;;5005043;28;20034;-78
2022/02/02 21:55:03;;;;;;;15.05;6.05;;;;;;;;;;5012040;28;20034;-79
2022/02/02 21:57:28;;;;;;;13.27;5.35;;;;;;;;;;5013864;28;20041;-76
2022/02/02 21:59:53;;;;;;;10.98;6.15;;;;;;;;;;5014180;28;20044;-77
2022/02/02 22:02:19;;;;;;;14.98;5.80;;;;;;;;;;5007779;28;20374;-80
2022/02/02 22:04:44;;;;;;;13.15;5.38;;;;;;;;;;5011378;28;20377;-80
2022/02/02 22:07:09;;;;;;;15.40;5.68;;;;;;;;;;5010515;28;20118;-78
2022/02/02 22:09:34;;;;;;;12.05;5.45;;;;;;;;;;5008437;28;20030;-78
2022/02/02 22:12:00;;;;;;;11.65;5.60;;;;;;;;;;5010439;28;20022;-78
2022/02/02 22:14:26;;;;;;;12.88;4.80;;;;;;;;;;5010399;28;20059;-78
2022/02/02 22:16:52;;;;;;;11.52;5.88;;;;;;;;;;5009784;28;20032;-77
2022/02/02 22:19:18;;;;;;;12.38;4.78;;;;;;;;;;5014806;28;20457;-79
2022/02/02 22:21:43;;;;;;;14.10;5.90;;;;;;;;;;5010993;28;20108;-79
2022/02/02 22:24:08;;;;;;;13.32;4.88;;;;;;;;;;5010014;28;20034;-81
2022/02/02 22:26:35;;;;;;;14.18;5.47;;;;;;;;;;5008866;28;20522;-79
2022/02/02 22:29:00;;;;;;;14.85;5.47;;;;;;;;;;5009255;28;20097;-81
2022/02/02 22:31:26;;;;;;;10.77;5.07;;;;;;;;;;5009314;28;20109;-78
2022/02/02 22:33:51;;;;;;;14.30;5.20;;;;;;;;;;5010968;28;20436;-77
2022/02/02 22:36:18;;;;;;;12.65;5.18;;;;;;;;;;5009552;28;20088;-79
2022/02/02 22:38:45;;;;;;;12.15;4.55;;;;;;;;;;5009594;28;20062;-79
2022/02/02 22:41:10;;;;;;;8.95;5.00;;;;;;;;;;5009385;28;20025;-81
2022/02/02 22:43:43;;;;;;;14.98;5.30;;;;;;;;;;5009486;28;20393;-80
2022/02/02 22:46:08;;;;;;;13.35;4.75;;;;;;;;;;5009561;28;20029;-79
2022/02/02 22:48:36;;;;;;;13.93;4.72;;;;;;;;;;5008770;28;20026;-77
2022/02/02 22:51:01;;;;;;;14.52;5.03;;;;;;;;;;5007742;28;20037;-80
2022/02/02 22:53:26;;;;;;;12.13;4.90;;;;;;;;;;5009247;28;20041;-79
2022/02/02 22:55:51;;;;;;;16.08;4.70;;;;;;;;;;5006121;28;20036;-80
2022/02/02 22:58:17;;;;;;;14.82;5.18;;;;;;;;;;5010026;28;20105;-78
2022/02/02 23:00:42;;;;;;;10.82;4.80;;;;;;;;;;5006218;28;20026;-81
2022/02/02 23:03:13;;;;;;;15.27;5.20;;;;;;;;;;5004762;28;20101;-83
2022/02/02 23:05:42;;;;;;;12.32;5.03;;;;;;;;;;5002678;28;20073;-81
2022/02/02 23:08:09;;;;;;;11.45;4.97;;;;;;;;;;5002747;28;20040;-81
2022/02/02 23:10:36;;;;;;;12.55;5.20;;;;;;;;;;5006190;28;20041;-79
2022/02/02 23:13:02;;;;;;;16.55;5.20;;;;;;;;;;5008023;28;20022;-77
2022/02/02 23:18:20;;;;;;;12.80;5.50;;;;;;;;;;4966781;28;20548;-77
2022/02/02 23:20:49;;;;;;;13.00;5.20;;;;;;;;;;4962784;28;20178;-77
2022/02/02 23:23:16;;;;;;;13.07;5.00;;;;;;;;;;4949991;28;20049;-77
2022/02/02 23:25:41;;;;;;;10.27;5.03;;;;;;;;;;4965667;28;20062;-77
2022/02/02 23:28:07;;;;;;;10.15;5.07;;;;;;;;;;4967006;28;20504;-77
2022/02/02 23:30:33;;;;;;;13.68;5.15;;;;;;;;;;4966887;28;20496;-77
2022/02/02 23:33:01;;;;;;;11.38;5.30;;;;;;;;;;4966765;28;20026;-76
2022/02/02 23:35:26;;;;;;;13.40;5.07;;;;;;;;;;4965491;28;20096;-79
2022/02/02 23:37:52;;;;;;;11.23;5.05;;;;;;;;;;4968711;28;20102;-78
2022/02/02 23:40:17;;;;;;;9.82;4.95;;;;;;;;;;4967240;28;20038;-78
2022/02/02 23:42:43;;;;;;;16.13;5.30;;;;;;;;;;4966775;28;20038;-80
2022/02/02 23:45:08;;;;;;;11.80;4.50;;;;;;;;;;4956228;28;20043;-79
2022/02/02 23:47:34;;;;;;;9.13;4.72;;;;;;;;;;4966445;28;20106;-80
2022/02/02 23:50:06;;;;;;;12.52;4.93;;;;;;;;;;4965820;28;20057;-81
2022/02/02 23:52:40;;;;;;;11.10;5.32;;;;;;;;;;4964955;28;20034;-81
2022/02/02 23:55:09;;;;;;;11.18;5.13;;;;;;;;;;4983709;28;20100;-79
2022/02/02 23:57:47;;;;;;;13.57;5.15;;;;;;;;;;5007703;28;20057;-80
